createdAt,value
2017-08-08T00:00:12.680Z,4.03
2017-08-08T00:02:40.997Z,4.20
2017-08-08T00:05:09.370Z,3.23
2017-08-08T00:07:37.647Z,3.70
2017-08-08T00:10:05.909Z,3.90
2017-08-08T00:12:34.177Z,3.90
2017-08-08T00:15:02.469Z,3.83
2017-08-08T00:17:30.750Z,5.03
2017-08-08T00:19:59.045Z,3.60
2017-08-08T00:22:27.324Z,3.87
2017-08-08T00:24:55.596Z,4.23
2017-08-08T00:27:23.876Z,4.17
2017-08-08T00:29:52.241Z,4.20
2017-08-08T00:32:20.549Z,3.83
2017-08-08T00:34:49.601Z,3.80
2017-08-08T00:37:17.931Z,3.90
2017-08-08T00:39:47.015Z,3.77
2017-08-08T00:42:15.362Z,3.60
2017-08-08T00:44:43.655Z,5.77
2017-08-08T00:47:11.925Z,3.97
2017-08-08T00:49:40.407Z,4.27
2017-08-08T00:52:08.759Z,3.63
2017-08-08T00:54:37.072Z,3.93
2017-08-08T00:57:05.341Z,3.57
2017-08-08T00:59:33.737Z,4.33
2017-08-08T01:02:02.001Z,3.80
2017-08-08T01:04:30.366Z,7.03
2017-08-08T01:06:58.639Z,3.40
2017-08-08T01:09:26.935Z,4.00
2017-08-08T01:11:55.185Z,3.53
2017-08-08T01:14:23.449Z,3.83
2017-08-08T01:16:51.883Z,4.50
2017-08-08T01:19:20.245Z,4.33
2017-08-08T01:21:48.638Z,3.63
2017-08-08T01:24:16.889Z,4.63
2017-08-08T01:26:45.171Z,3.90
2017-08-08T01:29:13.430Z,4.20
2017-08-08T01:31:41.720Z,4.73
2017-08-08T01:34:09.996Z,4.70
2017-08-08T01:36:38.268Z,4.87
2017-08-08T01:39:06.523Z,3.50
2017-08-08T01:41:34.845Z,3.93
2017-08-08T01:44:03.097Z,3.73
2017-08-08T01:46:31.395Z,4.30
2017-08-08T01:48:59.654Z,4.47
2017-08-08T01:51:27.954Z,3.90
2017-08-08T01:53:56.332Z,3.87
2017-08-08T01:56:24.709Z,4.90
2017-08-08T01:58:52.995Z,4.90
2017-08-08T02:01:21.254Z,5.20
2017-08-08T02:03:49.642Z,5.10
2017-08-08T02:06:18.710Z,4.40
2017-08-08T02:08:47.090Z,4.53
2017-08-08T02:11:15.359Z,4.97
2017-08-08T02:13:43.732Z,4.20
2017-08-08T02:16:12.023Z,4.57
2017-08-08T02:18:40.403Z,4.40
2017-08-08T02:21:08.676Z,4.47
2017-08-08T02:23:36.946Z,4.53
2017-08-08T02:26:05.247Z,4.60
2017-08-08T02:28:33.611Z,5.00
2017-08-08T02:31:01.898Z,4.57
2017-08-08T02:33:30.181Z,4.60
2017-08-08T02:35:58.542Z,4.40
2017-08-08T02:38:26.818Z,5.00
2017-08-08T02:40:55.091Z,6.00
2017-08-08T02:43:23.381Z,4.83
2017-08-08T02:45:51.666Z,5.27
2017-08-08T02:48:19.935Z,4.57
2017-08-08T02:50:48.217Z,4.53
2017-08-08T02:53:16.646Z,5.00
2017-08-08T02:55:45.677Z,5.23
2017-08-08T02:58:13.999Z,5.10
2017-08-08T03:00:42.270Z,6.03
2017-08-08T03:03:10.637Z,4.70
2017-08-08T03:05:38.913Z,5.17
2017-08-08T03:08:07.225Z,4.97
2017-08-08T03:10:36.314Z,5.33
2017-08-08T03:13:05.398Z,6.97
2017-08-08T03:15:33.776Z,5.10
2017-08-08T03:18:02.145Z,5.03
2017-08-08T03:20:30.523Z,5.60
2017-08-08T03:22:58.780Z,4.93
2017-08-08T03:25:27.181Z,5.33
2017-08-08T03:27:55.440Z,6.07
2017-08-08T03:30:23.708Z,5.93
2017-08-08T03:32:52.018Z,5.77
2017-08-08T03:35:20.272Z,6.07
2017-08-08T03:37:48.588Z,6.00
2017-08-08T03:40:16.860Z,5.73
2017-08-08T03:42:45.222Z,6.57
2017-08-08T03:45:13.473Z,6.50
2017-08-08T03:47:41.770Z,6.73
2017-08-08T03:50:10.033Z,6.80
2017-08-08T03:52:38.324Z,5.73
2017-08-08T03:55:06.605Z,5.90
2017-08-08T03:57:34.883Z,6.10
2017-08-08T04:00:03.262Z,6.77
2017-08-08T04:02:31.531Z,5.90
2017-08-08T04:04:59.930Z,5.97
2017-08-08T04:07:28.190Z,5.60
2017-08-08T04:09:56.471Z,7.07
2017-08-08T04:12:24.742Z,5.67
2017-08-08T04:14:53.120Z,5.00
2017-08-08T04:17:21.380Z,7.43
2017-08-08T04:19:49.697Z,6.80
2017-08-08T04:22:18.077Z,5.33
2017-08-08T04:24:46.370Z,6.10
2017-08-08T04:27:14.738Z,6.57
2017-08-08T04:29:43.018Z,5.60
2017-08-08T04:32:11.397Z,6.53
2017-08-08T04:34:39.651Z,6.20
2017-08-08T04:37:08.041Z,5.23
2017-08-08T04:39:36.313Z,6.83
2017-08-08T04:42:04.613Z,6.30
2017-08-08T04:44:32.897Z,8.47
2017-08-08T04:47:01.258Z,7.57
2017-08-08T04:49:29.649Z,7.40
2017-08-08T04:51:57.914Z,6.67
2017-08-08T04:54:26.183Z,7.07
2017-08-08T04:56:54.447Z,8.07
2017-08-08T04:59:22.855Z,6.10
2017-08-08T05:01:51.146Z,6.80
2017-08-08T05:04:19.422Z,7.23
2017-08-08T05:06:47.785Z,6.53
2017-08-08T05:09:16.857Z,6.50
2017-08-08T05:11:45.205Z,6.30
2017-08-08T05:14:13.529Z,6.60
2017-08-08T05:16:41.801Z,6.53
2017-08-08T05:19:10.109Z,7.13
2017-08-08T05:21:38.454Z,6.47
2017-08-08T05:24:06.720Z,6.80
2017-08-08T05:26:35.800Z,6.23
2017-08-08T05:29:04.077Z,6.83
2017-08-08T05:31:32.550Z,5.83
2017-08-08T05:34:00.919Z,6.00
2017-08-08T05:36:29.181Z,7.30
2017-08-08T05:38:57.574Z,6.53
2017-08-08T05:41:25.842Z,6.00
2017-08-08T05:43:54.130Z,6.30
2017-08-08T05:46:22.409Z,6.50
2017-08-08T05:48:50.733Z,6.80
2017-08-08T05:51:19.777Z,5.77
2017-08-08T05:53:48.030Z,6.50
2017-08-08T05:56:16.325Z,7.67
2017-08-08T05:58:44.615Z,6.47
2017-08-08T06:01:12.994Z,6.33
2017-08-08T06:03:41.265Z,6.23
2017-08-08T06:06:09.646Z,9.33
2017-08-08T06:08:37.926Z,6.27
2017-08-08T06:11:06.303Z,7.20
2017-08-08T06:13:34.679Z,5.20
2017-08-08T06:16:02.931Z,5.90
2017-08-08T06:18:31.206Z,5.03
2017-08-08T06:20:59.525Z,4.50
2017-08-08T06:23:27.814Z,4.60
2017-08-08T06:25:56.078Z,4.60
2017-08-08T06:28:24.365Z,3.97
2017-08-08T06:30:53.388Z,5.03
2017-08-08T06:33:21.677Z,4.87
2017-08-08T06:35:49.953Z,3.77
2017-08-08T06:38:18.234Z,4.10
2017-08-08T06:40:46.526Z,4.30
2017-08-08T06:43:14.783Z,3.70
2017-08-08T06:45:43.162Z,3.90
2017-08-08T06:48:11.454Z,3.93
2017-08-08T06:50:39.833Z,4.03
2017-08-08T06:53:08.095Z,3.73
2017-08-08T06:55:36.498Z,3.60
2017-08-08T06:58:04.767Z,3.80
2017-08-08T07:00:33.156Z,4.27
2017-08-08T07:03:01.430Z,4.07
2017-08-08T07:05:29.683Z,3.83
2017-08-08T07:07:57.965Z,3.03
2017-08-08T07:10:26.256Z,3.47
2017-08-08T07:12:54.572Z,3.37
2017-08-08T07:15:23.623Z,3.60
2017-08-08T07:17:51.902Z,2.80
2017-08-08T07:20:20.168Z,3.80
2017-08-08T07:22:48.452Z,3.30
2017-08-08T07:25:16.722Z,3.33
2017-08-08T07:27:44.982Z,3.30
2017-08-08T07:30:13.286Z,3.17
2017-08-08T07:32:41.548Z,3.07
2017-08-08T07:35:09.877Z,3.53
2017-08-08T07:37:38.904Z,3.47
2017-08-08T07:40:07.183Z,2.90
2017-08-08T07:42:35.486Z,2.80
2017-08-08T07:45:03.902Z,2.97
2017-08-08T07:47:32.952Z,2.60
2017-08-08T07:50:01.342Z,2.90
2017-08-08T07:52:29.600Z,3.00
2017-08-08T07:54:57.920Z,2.70
2017-08-08T07:57:26.196Z,3.13
2017-08-08T07:59:54.563Z,2.50
2017-08-08T08:02:22.938Z,2.80
2017-08-08T08:04:51.223Z,3.40
2017-08-08T08:07:19.501Z,2.77
2017-08-08T08:09:47.775Z,2.67
2017-08-08T08:12:16.066Z,2.80
2017-08-08T08:14:45.138Z,2.60
2017-08-08T08:17:13.413Z,2.83
2017-08-08T08:19:41.732Z,2.57
2017-08-08T08:22:10.752Z,2.50
2017-08-08T08:24:39.091Z,2.60
2017-08-08T08:27:07.448Z,2.50
2017-08-08T08:29:35.780Z,2.87
2017-08-08T08:32:04.121Z,2.80
2017-08-08T08:34:32.588Z,2.60
2017-08-08T08:37:00.849Z,2.60
2017-08-08T08:39:29.266Z,2.13
2017-08-08T08:41:57.725Z,2.60
2017-08-08T08:44:25.986Z,1.80
2017-08-08T08:46:54.289Z,2.43
2017-08-08T08:49:22.647Z,2.60
2017-08-08T08:51:51.053Z,2.50
2017-08-08T08:54:19.435Z,2.13
2017-08-08T08:56:48.542Z,2.70
2017-08-08T08:59:17.566Z,2.30
2017-08-08T09:01:45.862Z,2.10
2017-08-08T09:04:14.125Z,2.50
2017-08-08T09:06:42.459Z,2.10
2017-08-08T09:09:10.738Z,2.73
2017-08-08T09:11:39.828Z,2.77
2017-08-08T09:14:08.119Z,2.40
2017-08-08T09:16:37.186Z,2.53
2017-08-08T09:19:05.480Z,2.10
2017-08-08T09:21:33.739Z,2.80
2017-08-08T09:24:02.019Z,2.50
2017-08-08T09:26:30.293Z,2.40
2017-08-08T09:28:58.557Z,3.13
2017-08-08T09:31:26.843Z,3.03
2017-08-08T09:33:55.127Z,2.90
2017-08-08T09:36:23.519Z,2.70
2017-08-08T09:38:51.780Z,2.83
2017-08-08T09:41:20.160Z,4.90
2017-08-08T09:43:48.441Z,2.50
2017-08-08T09:46:16.737Z,3.47
2017-08-08T09:48:45.096Z,3.30
2017-08-08T09:51:13.402Z,3.03
2017-08-08T09:53:42.424Z,3.70
2017-08-08T09:56:10.743Z,4.40
2017-08-08T09:58:39.014Z,3.63
2017-08-08T10:01:07.297Z,3.90
2017-08-08T10:03:35.695Z,2.83
2017-08-08T10:06:03.958Z,3.33
2017-08-08T10:08:32.244Z,3.50
2017-08-08T10:11:00.511Z,3.80
2017-08-08T10:13:28.808Z,3.90
2017-08-08T10:15:57.181Z,4.10
2017-08-08T10:18:25.438Z,3.80
2017-08-08T10:20:53.822Z,4.13
2017-08-08T10:23:22.090Z,3.33
2017-08-08T10:25:50.381Z,3.37
2017-08-08T10:28:18.637Z,8.50
2017-08-08T10:30:47.807Z,3.63
2017-08-08T10:33:16.127Z,3.90
2017-08-08T10:35:44.396Z,3.67
2017-08-08T10:38:12.696Z,3.90
2017-08-08T10:40:41.024Z,4.03
2017-08-08T10:43:09.361Z,3.17
2017-08-08T10:45:37.616Z,3.30
2017-08-08T10:48:05.902Z,4.03
2017-08-08T10:50:34.178Z,3.60
2017-08-08T10:53:02.472Z,4.47
2017-08-08T10:55:31.542Z,3.43
2017-08-08T10:57:59.921Z,4.00
2017-08-08T11:00:28.196Z,3.70
2017-08-08T11:02:56.484Z,3.83
2017-08-08T11:05:24.740Z,3.30
2017-08-08T11:07:52.995Z,3.93
2017-08-08T11:10:21.292Z,3.70
2017-08-08T11:12:49.599Z,6.53
2017-08-08T11:15:17.880Z,3.97
2017-08-08T11:17:46.151Z,4.20
2017-08-08T11:20:14.432Z,3.53
2017-08-08T11:22:42.705Z,4.10
2017-08-08T11:25:11.060Z,3.70
2017-08-08T11:27:39.326Z,3.30
2017-08-08T11:30:07.580Z,3.50
2017-08-08T11:32:35.878Z,3.50
2017-08-08T11:35:04.163Z,3.50
2017-08-08T11:37:32.565Z,4.07
2017-08-08T11:40:00.879Z,4.03
2017-08-08T11:42:29.912Z,7.03
2017-08-08T11:44:58.163Z,4.13
2017-08-08T11:47:26.557Z,3.80
2017-08-08T11:49:54.817Z,3.50
2017-08-08T11:52:23.161Z,4.03
2017-08-08T11:54:51.427Z,3.60
2017-08-08T11:57:19.678Z,3.90
2017-08-08T11:59:47.987Z,4.00
2017-08-08T12:02:16.262Z,4.57
2017-08-08T12:04:44.652Z,4.33
2017-08-08T12:07:12.903Z,3.93
2017-08-08T12:09:41.200Z,4.07
2017-08-08T12:12:09.575Z,3.43
2017-08-08T12:14:37.852Z,3.17
2017-08-08T12:17:06.121Z,4.23
2017-08-08T12:19:34.369Z,3.70
2017-08-08T12:22:02.640Z,3.20
2017-08-08T12:24:30.910Z,3.27
2017-08-08T12:26:59.251Z,3.57
2017-08-08T12:29:27.533Z,3.77
2017-08-08T12:31:56.606Z,3.40
2017-08-08T12:34:24.898Z,4.07
2017-08-08T12:36:53.211Z,3.90
2017-08-08T12:39:21.473Z,3.77
2017-08-08T12:41:50.534Z,4.17
2017-08-08T12:44:18.927Z,3.50
2017-08-08T12:46:47.656Z,3.53
2017-08-08T12:49:15.942Z,4.03
2017-08-08T12:51:44.209Z,3.60
2017-08-08T12:54:12.525Z,3.50
2017-08-08T12:56:40.794Z,3.63
2017-08-08T12:59:09.051Z,3.50
2017-08-08T13:01:37.341Z,3.20
2017-08-08T13:04:05.599Z,3.63
2017-08-08T13:06:33.918Z,3.83
2017-08-08T13:09:02.179Z,3.33
2017-08-08T13:11:30.675Z,4.17
2017-08-08T13:13:58.926Z,3.00
2017-08-08T13:16:27.334Z,3.40
2017-08-08T13:18:55.623Z,3.37
2017-08-08T13:21:23.916Z,3.20
2017-08-08T13:23:52.983Z,5.07
2017-08-08T13:26:21.251Z,4.03
2017-08-08T13:28:49.738Z,3.33
2017-08-08T13:31:18.029Z,3.87
2017-08-08T13:33:46.479Z,3.60
2017-08-08T13:36:14.756Z,3.23
2017-08-08T13:38:43.063Z,3.33
2017-08-08T13:41:11.335Z,3.40
2017-08-08T13:43:39.617Z,3.43
2017-08-08T13:46:07.992Z,3.33
2017-08-08T13:48:36.297Z,3.57
2017-08-08T13:51:05.376Z,3.87
2017-08-08T13:53:33.738Z,3.77
2017-08-08T13:56:02.218Z,3.03
2017-08-08T13:58:30.495Z,5.80
2017-08-08T14:00:58.764Z,4.17
2017-08-08T14:03:27.029Z,3.97
2017-08-08T14:05:55.325Z,3.17
2017-08-08T14:08:23.606Z,3.70
2017-08-08T14:10:51.885Z,3.40
2017-08-08T14:13:20.146Z,3.83
2017-08-08T14:15:48.541Z,3.40
2017-08-08T14:18:16.797Z,3.57
2017-08-08T14:20:45.088Z,3.20
2017-08-08T14:23:13.366Z,3.60
2017-08-08T14:25:41.616Z,4.03
2017-08-08T14:28:09.934Z,4.10
2017-08-08T14:30:38.211Z,3.53
2017-08-08T14:33:06.577Z,3.73
2017-08-08T14:35:34.857Z,4.20
2017-08-08T14:38:03.339Z,3.70
2017-08-08T14:40:31.618Z,3.73
2017-08-08T14:42:59.893Z,3.17
2017-08-08T14:45:28.270Z,3.90
2017-08-08T14:47:56.513Z,3.97
2017-08-08T14:50:24.851Z,4.20
2017-08-08T14:52:53.878Z,3.77
2017-08-08T14:55:22.205Z,3.23
2017-08-08T14:57:50.555Z,3.80
2017-08-08T15:00:18.850Z,7.00
2017-08-08T15:02:47.110Z,4.17
2017-08-08T15:05:15.403Z,3.37
2017-08-08T15:07:43.676Z,3.30
2017-08-08T15:10:11.966Z,3.50
2017-08-08T15:12:40.244Z,3.73
2017-08-08T15:15:08.624Z,4.83
2017-08-08T15:17:37.016Z,14.80
2017-08-08T15:20:05.390Z,3.60
2017-08-08T15:22:33.764Z,3.43
2017-08-08T15:25:02.029Z,3.43
2017-08-08T15:27:30.431Z,3.83
2017-08-08T15:29:58.702Z,3.33
2017-08-08T15:32:26.998Z,3.57
2017-08-08T15:34:56.063Z,4.30
2017-08-08T15:37:24.342Z,3.97
2017-08-08T15:39:52.727Z,4.00
2017-08-08T15:42:20.988Z,4.03
2017-08-08T15:44:49.272Z,3.80
2017-08-08T15:47:17.551Z,4.00
2017-08-08T15:49:45.838Z,3.90
2017-08-08T15:52:14.121Z,3.90
2017-08-08T15:54:42.411Z,4.30
2017-08-08T15:57:11.486Z,4.70
2017-08-08T15:59:39.865Z,4.43
2017-08-08T16:02:08.236Z,4.33
2017-08-08T16:04:36.510Z,4.20
2017-08-08T16:07:04.910Z,5.30
2017-08-08T16:09:33.225Z,4.30
2017-08-08T16:12:01.512Z,4.30
2017-08-08T16:14:29.825Z,4.17
2017-08-08T16:16:58.224Z,4.90
2017-08-08T16:19:26.505Z,4.17
2017-08-08T16:21:54.774Z,4.33
2017-08-08T16:24:23.151Z,7.17
2017-08-08T16:26:51.420Z,4.77
2017-08-08T16:29:19.737Z,4.57
2017-08-08T16:31:48.751Z,4.30
2017-08-08T16:34:17.064Z,5.77
2017-08-08T16:36:45.326Z,4.73
2017-08-08T16:39:13.631Z,4.73
2017-08-08T16:41:42.015Z,5.20
2017-08-08T16:44:10.315Z,4.10
2017-08-08T16:46:39.381Z,3.90
2017-08-08T16:49:07.643Z,4.00
2017-08-08T16:51:36.041Z,4.13
2017-08-08T16:54:04.402Z,4.70
2017-08-08T16:56:32.680Z,4.03
2017-08-08T16:59:00.959Z,4.13
2017-08-08T17:01:29.339Z,4.90
2017-08-08T17:03:57.613Z,4.60
2017-08-08T17:06:25.898Z,4.47
2017-08-08T17:08:54.175Z,5.17
2017-08-08T17:11:22.545Z,4.20
2017-08-08T17:13:50.800Z,4.60
2017-08-08T17:16:19.095Z,4.50
2017-08-08T17:18:47.377Z,5.57
2017-08-08T17:21:15.648Z,4.23
2017-08-08T17:23:43.960Z,3.70
2017-08-08T17:26:13.012Z,4.23
2017-08-08T17:28:41.285Z,3.50
2017-08-08T17:31:09.598Z,4.20
2017-08-08T17:33:37.893Z,3.53
2017-08-08T17:36:07.057Z,4.00
2017-08-08T17:38:35.311Z,3.90
2017-08-08T17:41:03.614Z,3.90
2017-08-08T17:43:31.868Z,4.10
2017-08-08T17:46:00.169Z,5.73
2017-08-08T17:48:28.461Z,3.70
2017-08-08T17:50:56.738Z,4.17
2017-08-08T17:53:25.007Z,4.23
2017-08-08T17:55:53.393Z,4.97
2017-08-08T17:58:21.688Z,4.87
2017-08-08T18:00:49.961Z,4.13
2017-08-08T18:03:19.027Z,3.87
2017-08-08T18:05:47.308Z,4.10
2017-08-08T18:08:15.690Z,4.50
2017-08-08T18:10:43.966Z,5.50
2017-08-08T18:13:12.271Z,4.97
2017-08-08T18:15:41.325Z,4.20
2017-08-08T18:18:09.576Z,5.57
2017-08-08T18:20:37.882Z,3.80
2017-08-08T18:23:06.144Z,4.20
2017-08-08T18:25:34.531Z,6.13
2017-08-08T18:28:02.789Z,4.57
2017-08-08T18:30:31.082Z,4.90
2017-08-08T18:32:59.389Z,4.40
2017-08-08T18:35:27.746Z,4.20
2017-08-08T18:37:56.043Z,4.40
2017-08-08T18:40:24.367Z,4.47
2017-08-08T18:42:52.621Z,4.60
2017-08-08T18:45:20.957Z,4.43
2017-08-08T18:47:49.338Z,4.20
2017-08-08T18:50:17.623Z,5.33
2017-08-08T18:52:45.906Z,4.37
2017-08-08T18:55:14.165Z,4.50
2017-08-08T18:57:42.675Z,4.50
2017-08-08T19:00:11.747Z,4.33
2017-08-08T19:02:40.118Z,4.33
2017-08-08T19:05:08.377Z,4.90
2017-08-08T19:07:36.652Z,5.00
2017-08-08T19:10:04.948Z,4.27
2017-08-08T19:12:33.222Z,5.70
2017-08-08T19:15:01.606Z,7.50
2017-08-08T19:17:29.909Z,4.17
2017-08-08T19:19:58.189Z,5.53
2017-08-08T19:22:27.215Z,5.27
2017-08-08T19:24:55.554Z,4.80
2017-08-08T19:27:23.834Z,5.23
2017-08-08T19:29:52.875Z,4.77
2017-08-08T19:32:21.212Z,4.70
2017-08-08T19:34:50.233Z,4.77
2017-08-08T19:37:18.632Z,4.53
2017-08-08T19:39:46.952Z,3.93
2017-08-08T19:42:15.272Z,4.33
2017-08-08T19:44:43.544Z,5.93
2017-08-08T19:47:11.839Z,6.17
2017-08-08T19:49:40.154Z,5.80
2017-08-08T19:52:08.475Z,3.60
2017-08-08T19:54:36.775Z,3.90
2017-08-08T19:57:05.059Z,4.77
2017-08-08T19:59:33.351Z,4.97
2017-08-08T20:02:01.634Z,4.80
2017-08-08T20:04:29.953Z,5.33
2017-08-08T20:06:59.041Z,4.20
2017-08-08T20:09:28.074Z,4.47
2017-08-08T20:11:56.390Z,6.30
2017-08-08T20:14:24.688Z,3.97
2017-08-08T20:16:53.785Z,4.13
2017-08-08T20:19:22.853Z,4.13
2017-08-08T20:21:51.233Z,3.87
2017-08-08T20:24:19.536Z,4.03
2017-08-08T20:26:48.579Z,4.90
2017-08-08T20:29:16.917Z,3.90
2017-08-08T20:31:45.955Z,3.80
2017-08-08T20:34:14.226Z,4.37
2017-08-08T20:36:42.532Z,9.90
2017-08-08T20:39:10.817Z,5.00
2017-08-08T20:41:39.081Z,4.77
2017-08-08T20:44:07.359Z,4.23
2017-08-08T20:46:35.931Z,5.30
2017-08-08T20:49:04.235Z,6.20
2017-08-08T20:51:32.600Z,5.03
2017-08-08T20:54:00.913Z,5.43
2017-08-08T20:56:30.085Z,7.70
2017-08-08T20:58:58.337Z,4.60
2017-08-08T21:01:26.634Z,4.17
2017-08-08T21:03:54.911Z,4.10
2017-08-08T21:06:23.182Z,4.40
2017-08-08T21:08:51.436Z,4.07
2017-08-08T21:11:19.730Z,4.43
2017-08-08T21:13:48.061Z,4.57
2017-08-08T21:16:17.087Z,4.30
2017-08-08T21:18:45.527Z,4.40
2017-08-08T21:21:14.560Z,4.73
2017-08-08T21:23:42.816Z,4.53
2017-08-08T21:26:11.116Z,5.40
2017-08-08T21:28:39.421Z,4.60
2017-08-08T21:31:07.708Z,5.20
2017-08-08T21:33:36.778Z,4.00
2017-08-08T21:36:05.151Z,4.70
2017-08-08T21:38:33.539Z,4.07
2017-08-08T21:41:01.817Z,4.20
2017-08-08T21:43:30.082Z,3.87
2017-08-08T21:45:58.478Z,4.00
2017-08-08T21:48:26.712Z,5.13
2017-08-08T21:50:55.013Z,4.20
2017-08-08T21:53:23.280Z,4.10
2017-08-08T21:55:51.549Z,3.70
2017-08-08T21:58:19.848Z,3.20
2017-08-08T22:00:48.127Z,3.77
2017-08-08T22:03:16.506Z,3.83
2017-08-08T22:05:44.785Z,4.83
2017-08-08T22:08:13.195Z,4.20
2017-08-08T22:10:42.209Z,4.27
2017-08-08T22:13:10.532Z,4.57
2017-08-08T22:15:38.808Z,3.60
2017-08-08T22:18:07.099Z,4.67
2017-08-08T22:20:35.391Z,4.47
2017-08-08T22:23:04.424Z,4.80
2017-08-08T22:25:32.726Z,4.07
2017-08-08T22:28:01.025Z,4.60
2017-08-08T22:30:29.291Z,4.43
2017-08-08T22:32:57.555Z,4.30
2017-08-08T22:35:25.855Z,5.50
2017-08-08T22:37:54.113Z,4.70
2017-08-08T22:40:22.364Z,5.60
2017-08-08T22:42:50.663Z,4.10
2017-08-08T22:45:19.733Z,4.50
2017-08-08T22:47:48.052Z,4.67
2017-08-08T22:50:16.340Z,4.93
2017-08-08T22:52:44.715Z,5.53
2017-08-08T22:55:13.020Z,5.00
2017-08-08T22:57:42.091Z,4.30
2017-08-08T23:00:10.367Z,4.90
2017-08-08T23:02:38.761Z,7.77
2017-08-08T23:05:07.031Z,6.23
2017-08-08T23:07:35.313Z,5.40
2017-08-08T23:10:03.677Z,6.80
2017-08-08T23:12:31.960Z,4.87
2017-08-08T23:15:00.349Z,5.87
2017-08-08T23:17:28.626Z,4.90
2017-08-08T23:19:56.918Z,6.00
2017-08-08T23:22:25.187Z,5.40
2017-08-08T23:24:53.483Z,5.80
2017-08-08T23:27:22.543Z,5.30
2017-08-08T23:29:50.801Z,4.97
2017-08-08T23:32:19.173Z,5.07
2017-08-08T23:34:47.424Z,6.43
2017-08-08T23:37:16.496Z,5.67
2017-08-08T23:39:44.779Z,6.47
2017-08-08T23:42:13.153Z,5.33
2017-08-08T23:44:41.452Z,5.47
2017-08-08T23:47:09.720Z,5.33
2017-08-08T23:49:37.983Z,6.47
2017-08-08T23:52:06.315Z,6.77
2017-08-08T23:54:35.349Z,5.87
2017-08-08T23:57:03.613Z,10.90
2017-08-08T23:59:31.893Z,6.80
